Kliftrans — PCDB — position and weather

sailwx.info

Track history (hours):
 
Tides and Currents Weather Stations Pressure Air Temp Water Temp Dewpoint Dewpoint Depression Visibility Wind Speed Wind Dir Waves Ship Positions

Kliftrans

Last reported at 2017-Apr-26 18:50 UTC. Time now 2017-Apr-26 19:26 UTC.
Position N 54°09' W 004°02'.

Length 32 m; draft 6.2 m.

Type: Tug. MMSI: 244890607.

Date/timePositionNaut miles runAvg speedWind from/ knotsBaromVisibWave heightAir tempDewpointWater temp
2017-Apr-26 18:50N 54°09' W 004°02'3 5.8
2017-Apr-26 18:21N 54°08' W 004°06'2 3.8
2017-Apr-26 17:48N 54°07' W 004°09'3 5.9
2017-Apr-26 17:17N 54°06' W 004°14'2 5.7
2017-Apr-26 16:56N 54°05' W 004°17'56 5.3
2017-Apr-26 06:24N 53°55' W 005°51'2 4.7
2017-Apr-26 06:00N 53°54' W 005°54'1 2.3
2017-Apr-26 05:30N 53°54' W 005°56'1 2.0
2017-Apr-26 05:00N 53°53' W 005°57'1 1.6
2017-Apr-26 04:30N 53°52' W 005°57'1 1.2
2017-Apr-26 04:00N 53°51' W 005°57'1 1.3
2017-Apr-26 03:30N 53°51' W 005°57'1 1.4
2017-Apr-26 03:00N 53°50' W 005°56'1 1.3
2017-Apr-26 02:30N 53°50' W 005°56'0 1.0
2017-Apr-26 02:00N 53°49' W 005°56'0 0.6
2017-Apr-26 01:30N 53°49' W 005°56'0 0.4
2017-Apr-26 01:00N 53°49' W 005°56'0 0.3
2017-Apr-26 00:30N 53°48' W 005°56'0 0.5
2017-Apr-25 23:59N 53°48' W 005°56'0 0.6
2017-Apr-25 23:28N 53°48' W 005°56'0 0.7
2017-Apr-25 22:56N 53°48' W 005°56'0 1.0
2017-Apr-25 22:29N 53°47' W 005°56'0 1.0
2017-Apr-25 22:00N 53°47' W 005°56'0 0.4
2017-Apr-25 21:30N 53°46' W 005°56'0 0.5
2017-Apr-25 21:00N 53°47' W 005°56'0 0.2
2017-Apr-25 20:30N 53°47' W 005°56'2 1.1
2017-Apr-25 18:30N 53°44' W 005°57'12 1.1
2017-Apr-25 07:33N 53°33' W 005°52'1 1.7
2017-Apr-25 07:06N 53°32' W 005°52'1 1.8
2017-Apr-25 06:41N 53°31' W 005°52'1 2.1
2017-Apr-25 06:27N 53°31' W 005°52'3 3.0
2017-Apr-25 05:32N 53°28' W 005°51'1 3.7
2017-Apr-25 05:21N 53°27' W 005°50'2 3.9
2017-Apr-25 04:55N 53°26' W 005°49'65 3.2
2017-Apr-24 08:44N 52°21' W 005°54'54 7.0
2017-Apr-24 01:00N 51°27' W 006°04'3 5.8
2017-Apr-24 00:30N 51°24' W 006°04'103 4.9
2017-Apr-23 03:23N 50°00' W 004°29'2 5.5
2017-Apr-23 02:59N 50°01' W 004°26'5 5.5
2017-Apr-23 02:01N 50°02' W 004°18'0 5.9
2017-Apr-23 02:00N 50°02' W 004°18'24 6.9
2017-Apr-22 22:33N 50°06' W 003°42'1 7.8
2017-Apr-22 22:26N 50°06' W 003°40'3 7.8
2017-Apr-22 22:00N 50°07' W 003°35'4 7.4
2017-Apr-22 21:30N 50°08' W 003°29'3 7.0
2017-Apr-22 21:00N 50°09' W 003°24'3 6.6
2017-Apr-22 20:30N 50°09' W 003°19'3 6.3
2017-Apr-22 20:00N 50°10' W 003°15'3 5.9
2017-Apr-22 19:30N 50°11' W 003°10'3 5.6
2017-Apr-22 19:00N 50°11' W 003°06'3 5.4
2017-Apr-22 18:30N 50°12' W 003°02'3 5.2
2017-Apr-22 18:00N 50°13' W 002°58'3 5.0
2017-Apr-22 17:30N 50°13' W 002°54'3 5.1
2017-Apr-22 17:00N 50°14' W 002°50'3 5.0
2017-Apr-22 16:20N 50°15' W 002°45'2 5.0
2017-Apr-22 16:00N 50°15' W 002°42'94 6.4
2017-Apr-22 01:27N 50°32' W 000°18'3 6.7
2017-Apr-22 01:00N 50°32' W 000°13'3 6.8
2017-Apr-22 00:30N 50°32' W 000°08'3 7.0
2017-Apr-22 00:00N 50°33' W 000°02'4 7.2
2017-Apr-21 23:30N 50°33' E 000°03'4 7.1
2017-Apr-21 23:00N 50°34' E 000°09'4 7.1
2017-Apr-21 22:30N 50°35' E 000°14'4 7.0
2017-Apr-21 22:00N 50°36' E 000°19'3 6.8
2017-Apr-21 21:30N 50°37' E 000°25'3 6.4
2017-Apr-21 21:00N 50°38' E 000°29'3 6.1
2017-Apr-21 20:30N 50°39' E 000°34'3 5.9
2017-Apr-21 20:00N 50°40' E 000°38'3 5.7
2017-Apr-21 19:30N 50°42' E 000°42'3 5.6
2017-Apr-21 19:00N 50°43' E 000°45'3 5.5
2017-Apr-21 18:30N 50°45' E 000°49'3 5.4
2017-Apr-21 18:00N 50°47' E 000°52'3 5.3
2017-Apr-21 17:30N 50°48' E 000°56'3 5.5
2017-Apr-21 16:54N 50°50' E 001°00'19 6.5
2017-Apr-21 14:00N 51°02' E 001°23'5 7.4
2017-Apr-21 13:20N 51°05' E 001°29'2 7.6
2017-Apr-21 13:00N 51°07' E 001°32'4 7.4
2017-Apr-21 12:30N 51°09' E 001°37'3 6.9
2017-Apr-21 12:00N 51°11' E 001°41'3 6.6
2017-Apr-21 11:30N 51°13' E 001°45'3 6.2
2017-Apr-21 11:00N 51°16' E 001°48'3 5.8
2017-Apr-21 10:30N 51°18' E 001°51'3 5.5
2017-Apr-21 10:00N 51°20' E 001°54'3 5.2
2017-Apr-21 09:30N 51°22' E 001°56'3 5.2
2017-Apr-21 09:00N 51°24' E 001°59'2 4.7
2017-Apr-21 08:30N 51°24' E 002°03'3 5.3
2017-Apr-21 08:00N 51°23' E 002°07'3 5.5
2017-Apr-21 07:30N 51°22' E 002°11'3 5.6
2017-Apr-21 07:00N 51°21' E 002°15'3 5.2
2017-Apr-21 06:30N 51°21' E 002°19'3 5.3
2017-Apr-21 06:00N 51°22' E 002°23'3 5.6
2017-Apr-21 05:30N 51°23' E 002°28'3 5.6
2017-Apr-21 05:00N 51°23' E 002°32'3 5.7
2017-Apr-21 04:30N 51°22' E 002°37'3 5.8
2017-Apr-21 04:00N 51°22' E 002°41'3 5.2
2017-Apr-21 03:30N 51°22' E 002°45'3 5.5
2017-Apr-21 03:00N 51°22' E 002°50'3 5.3
2017-Apr-21 02:30N 51°23' E 002°54'3 5.8
2017-Apr-21 02:00N 51°23' E 002°59'3 5.9
2017-Apr-21 01:31N 51°25' E 003°03'3 5.8
2017-Apr-21 01:00N 51°24' E 003°07'3 6.3
2017-Apr-21 00:30N 51°24' E 003°12'3 6.8
2017-Apr-21 00:00N 51°25' E 003°18'3 6.8
2017-Apr-20 23:30N 51°25' E 003°23'4 7.1
2017-Apr-20 23:00N 51°25' E 003°29'4 7.3
2017-Apr-20 22:30N 51°26' E 003°35'3 6.8
2017-Apr-20 22:00N 51°27' E 003°40'1 1.9
2017-Apr-20 21:30N 51°28' E 003°41'0 0.3
2017-Apr-20 21:00N 51°28' E 003°40'0 0.0
2017-Apr-20 20:30N 51°28' E 003°40'0 0.1
2017-Apr-20 19:59N 51°28' E 003°40'0 0.0
2017-Apr-20 19:27N 51°28' E 003°40'0 0.1
2017-Apr-20 19:00N 51°28' E 003°40'0 0.0
2017-Apr-20 18:30N 51°28' E 003°40'0 0.1
2017-Apr-20 18:00N 51°28' E 003°40'2 0.3
2017-Apr-20 12:56N 51°27' E 003°43'0 0.0
2017-Apr-20 12:30N 51°27' E 003°43'0 0.5
2017-Apr-20 12:00N 51°27' E 003°43'0 0.0
2017-Apr-20 11:30N 51°27' E 003°43'0 0.0
2017-Apr-20 11:00N 51°27' E 003°43'0 0.0
2017-Apr-20 10:30N 51°27' E 003°43'1 1.3
2017-Apr-20 09:59N 51°27' E 003°42'0 0.2
2017-Apr-20 09:30N 51°27' E 003°42'1 1.2
2017-Apr-20 09:00N 51°27' E 003°42'1 2.3
2017-Apr-20 08:30N 51°27' E 003°40'2 4.1
2017-Apr-20 08:00N 51°26' E 003°37'2 4.5
2017-Apr-20 07:30N 51°27' E 003°40'0 0.1
2017-Apr-20 07:00N 51°27' E 003°40'0 0.0
2017-Apr-20 06:30N 51°27' E 003°40'0 0.0
2017-Apr-20 05:59N 51°27' E 003°40'0 0.0
2017-Apr-20 05:30N 51°27' E 003°40'0 0.0
2017-Apr-20 05:00N 51°27' E 003°40'0 0.0
2017-Apr-20 04:30N 51°27' E 003°40'0 0.0
2017-Apr-20 04:00N 51°27' E 003°40'0 0.0
2017-Apr-20 03:30N 51°27' E 003°40'0 0.0
2017-Apr-20 03:00N 51°27' E 003°40'0 0.0
2017-Apr-20 02:30N 51°27' E 003°40'0 0.0
2017-Apr-20 02:00N 51°27' E 003°40'0 0.0
2017-Apr-20 01:30N 51°27' E 003°40'0 0.0
2017-Apr-20 01:00N 51°27' E 003°40'0 0.0
2017-Apr-20 00:30N 51°27' E 003°40'0 0.0
2017-Apr-20 00:00N 51°27' E 003°40'0 0.0
2017-Apr-19 23:30N 51°27' E 003°40'0 0.0
2017-Apr-19 23:00N 51°27' E 003°40'0 0.0
2017-Apr-19 22:30N 51°27' E 003°40'0 0.0
2017-Apr-19 22:00N 51°27' E 003°40'0 0.0
2017-Apr-19 21:30N 51°27' E 003°40'0 0.0
2017-Apr-19 21:00N 51°27' E 003°40'0 0.0
2017-Apr-19 20:30N 51°27' E 003°40'611.5
2017-Apr-19 20:00N 51°22' E 003°44'2 4.1
2017-Apr-19 19:31N 51°20' E 003°46'1 2.6
2017-Apr-19 19:00N 51°22' E 003°45'1 1.2
2017-Apr-19 18:30N 51°21' E 003°46'2 4.0
2017-Apr-19 18:00N 51°20' E 003°49'0 0.0
2017-Apr-19 17:30N 51°20' E 003°49'0 0.0
2017-Apr-19 17:00N 51°20' E 003°49'1 0.6
2017-Apr-19 15:54N 51°20' E 003°49'0 0.1
2017-Apr-19 15:30N 51°20' E 003°49'1 1.1
2017-Apr-19 14:58N 51°19' E 003°50'0 0.1
2017-Apr-19 14:30N 51°19' E 003°50'3 3.0
2017-Apr-19 13:30N 51°16' E 003°50'3 6.4
2017-Apr-19 12:59N 51°13' E 003°48'3 5.7
2017-Apr-19 12:30N 51°10' E 003°48'0 0.3
2017-Apr-19 12:01N 51°10' E 003°48'0 0.2
2017-Apr-19 11:30N 51°10' E 003°48'1 2.7
2017-Apr-19 11:01N 51°09' E 003°47'0 0.0
2017-Apr-19 10:30N 51°09' E 003°47'0 0.0
2017-Apr-19 10:00N 51°09' E 003°47'0 0.0
2017-Apr-19 09:30N 51°09' E 003°47'0 0.0
2017-Apr-19 09:00N 51°09' E 003°47'0 0.0
2017-Apr-19 08:30N 51°09' E 003°47'0 0.0
2017-Apr-19 08:00N 51°09' E 003°47'0 0.0
2017-Apr-19 07:30N 51°09' E 003°47'0 0.0
2017-Apr-19 06:59N 51°09' E 003°47'0 0.0
2017-Apr-19 06:30N 51°09' E 003°47'0 0.0
2017-Apr-19 05:57N 51°09' E 003°47'0 0.0
2017-Apr-19 05:29N 51°09' E 003°47'0 0.0
2017-Apr-19 05:00N 51°09' E 003°47'0 0.0
2017-Apr-19 04:30N 51°09' E 003°47'0 0.2
2017-Apr-19 04:00N 51°09' E 003°47'4 7.4
2017-Apr-19 03:29N 51°05' E 003°45'1 1.5
2017-Apr-19 02:59N 51°06' E 003°45'3 5.6
2017-Apr-19 02:30N 51°09' E 003°47'4 7.7
2017-Apr-19 02:00N 51°12' E 003°48'5 7.0
2017-Apr-19 01:21N 51°17' E 003°50'3 7.1
2017-Apr-19 01:00N 51°19' E 003°50'7 0.4
2017-Apr-18 08:50N 51°24' E 003°42'3 8.1
2017-Apr-18 08:24N 51°27' E 003°40'0 0.4
2017-Apr-18 08:00N 51°27' E 003°40'0 0.0
2017-Apr-18 07:30N 51°27' E 003°40'0 0.0
2017-Apr-18 07:00N 51°27' E 003°40'0 0.0
2017-Apr-18 06:30N 51°27' E 003°40'0 0.0
2017-Apr-18 05:59N 51°27' E 003°40'0 0.0
2017-Apr-18 05:29N 51°27' E 003°40'0 0.0
2017-Apr-18 05:00N 51°27' E 003°40'0 0.0
2017-Apr-18 04:29N 51°27' E 003°40'0 0.0
2017-Apr-18 03:59N 51°27' E 003°40'0 0.0
2017-Apr-18 03:29N 51°27' E 003°40'0 0.0
2017-Apr-18 03:00N 51°27' E 003°40'0 0.0
2017-Apr-18 02:29N 51°27' E 003°40'0 0.0
2017-Apr-18 01:59N 51°27' E 003°40'0 0.0
2017-Apr-18 01:30N 51°27' E 003°40'0 0.0
2017-Apr-18 00:59N 51°27' E 003°40'0 0.0
2017-Apr-18 00:30N 51°27' E 003°40'0 0.0
2017-Apr-18 00:00N 51°27' E 003°40'0 0.0
2017-Apr-17 23:29N 51°27' E 003°40'0 0.0
2017-Apr-17 22:59N 51°27' E 003°40'0 0.0
2017-Apr-17 22:29N 51°27' E 003°40'0 0.0
2017-Apr-17 22:00N 51°27' E 003°40'0 0.0
2017-Apr-17 21:30N 51°27' E 003°40'0 0.0
2017-Apr-17 21:00N 51°27' E 003°40'0 0.0
2017-Apr-17 20:30N 51°27' E 003°40'0 0.0
2017-Apr-17 20:00N 51°27' E 003°40'0 0.0
2017-Apr-17 19:30N 51°27' E 003°40'0 0.0
2017-Apr-17 19:00N 51°27' E 003°40'0 0.0
2017-Apr-17 18:30N 51°27' E 003°40'0 0.0
2017-Apr-17 18:00N 51°27' E 003°40'0 0.0
2017-Apr-17 17:30N 51°27' E 003°40'0 0.0
2017-Apr-17 17:00N 51°27' E 003°40'0 0.0
2017-Apr-17 16:30N 51°27' E 003°40'0 0.0
2017-Apr-17 16:00N 51°27' E 003°40'0 0.0
2017-Apr-17 15:30N 51°27' E 003°40'0 0.0
2017-Apr-17 15:00N 51°27' E 003°40'0 0.0
2017-Apr-17 14:29N 51°27' E 003°40'0 0.0
2017-Apr-17 13:30N 51°27' E 003°40'0 0.0
2017-Apr-17 13:00N 51°27' E 003°40'0 0.0
2017-Apr-17 12:30N 51°27' E 003°40'0 0.0
2017-Apr-17 12:00N 51°27' E 003°40'0 0.0
2017-Apr-17 11:30N 51°27' E 003°40'0 0.0
2017-Apr-17 11:00N 51°27' E 003°40'0 0.0
2017-Apr-17 10:30N 51°27' E 003°40'0 0.0
2017-Apr-17 10:00N 51°27' E 003°40'0 0.0
2017-Apr-17 09:30N 51°27' E 003°40'0 0.0
2017-Apr-17 09:00N 51°27' E 003°40'0 0.0
2017-Apr-17 08:30N 51°27' E 003°40'0 0.0
2017-Apr-17 08:00N 51°27' E 003°40'0 0.0
2017-Apr-17 07:30N 51°27' E 003°40'0 0.0
2017-Apr-17 07:00N 51°27' E 003°40'0 0.0
2017-Apr-17 06:30N 51°27' E 003°40'0 0.0
2017-Apr-17 06:00N 51°27' E 003°40'0 0.0
2017-Apr-17 05:30N 51°27' E 003°40'0 0.0
2017-Apr-17 04:59N 51°27' E 003°40'0 0.0
2017-Apr-17 04:30N 51°27' E 003°40'0 0.0
2017-Apr-17 04:00N 51°27' E 003°40'0 0.0
2017-Apr-17 03:30N 51°27' E 003°40'0 0.0
2017-Apr-17 03:00N 51°27' E 003°40'0 0.0
2017-Apr-17 02:30N 51°27' E 003°40'0 0.0
2017-Apr-17 02:00N 51°27' E 003°40'0 0.0
2017-Apr-17 01:30N 51°27' E 003°40'0 0.0
2017-Apr-17 01:00N 51°27' E 003°40'0 0.0
2017-Apr-17 00:30N 51°27' E 003°40'0 0.0
2017-Apr-17 00:00N 51°27' E 003°40'0 0.0
2017-Apr-16 23:30N 51°27' E 003°40'0 0.0
2017-Apr-16 23:00N 51°27' E 003°40'0 0.1
2017-Apr-16 22:30N 51°27' E 003°40'2 3.6
2017-Apr-16 22:00N 51°28' E 003°43'2 3.6
2017-Apr-16 21:28N 51°27' E 003°40'0 0.3
2017-Apr-16 21:00N 51°27' E 003°40'0 0.0
2017-Apr-16 20:30N 51°27' E 003°40'0 0.0
2017-Apr-16 20:00N 51°27' E 003°40'0 0.0
2017-Apr-16 19:30N 51°27' E 003°40'0 0.0
2017-Apr-16 19:00N 51°27' E 003°40'  
Track history (hours):
 
Tides and Currents Weather Stations Pressure Air Temp Water Temp Dewpoint Dewpoint Depression Visibility Wind Speed Wind Dir Waves Ship Positions

Kliftrans

Last reported at 2017-Apr-26 18:50 UTC. Time now 2017-Apr-26 19:26 UTC.
Position N 54°09' W 004°02'.

Length 32 m; draft 6.2 m.

Type: Tug. MMSI: 244890607.

Date/timePositionNaut miles runAvg speedWind from/ knotsBaromVisibWave heightAir tempDewpointWater temp
2017-Apr-26 18:50N 54°09' W 004°02'3 5.8
2017-Apr-26 18:21N 54°08' W 004°06'2 3.8
2017-Apr-26 17:48N 54°07' W 004°09'3 5.9
2017-Apr-26 17:17N 54°06' W 004°14'2 5.7
2017-Apr-26 16:56N 54°05' W 004°17'56 5.3
2017-Apr-26 06:24N 53°55' W 005°51'2 4.7
2017-Apr-26 06:00N 53°54' W 005°54'1 2.3
2017-Apr-26 05:30N 53°54' W 005°56'1 2.0
2017-Apr-26 05:00N 53°53' W 005°57'1 1.6
2017-Apr-26 04:30N 53°52' W 005°57'1 1.2
2017-Apr-26 04:00N 53°51' W 005°57'1 1.3
2017-Apr-26 03:30N 53°51' W 005°57'1 1.4
2017-Apr-26 03:00N 53°50' W 005°56'1 1.3
2017-Apr-26 02:30N 53°50' W 005°56'0 1.0
2017-Apr-26 02:00N 53°49' W 005°56'0 0.6
2017-Apr-26 01:30N 53°49' W 005°56'0 0.4
2017-Apr-26 01:00N 53°49' W 005°56'0 0.3
2017-Apr-26 00:30N 53°48' W 005°56'0 0.5
2017-Apr-25 23:59N 53°48' W 005°56'0 0.6
2017-Apr-25 23:28N 53°48' W 005°56'0 0.7
2017-Apr-25 22:56N 53°48' W 005°56'0 1.0
2017-Apr-25 22:29N 53°47' W 005°56'0 1.0
2017-Apr-25 22:00N 53°47' W 005°56'0 0.4
2017-Apr-25 21:30N 53°46' W 005°56'0 0.5
2017-Apr-25 21:00N 53°47' W 005°56'0 0.2
2017-Apr-25 20:30N 53°47' W 005°56'2 1.1
2017-Apr-25 18:30N 53°44' W 005°57'12 1.1
2017-Apr-25 07:33N 53°33' W 005°52'1 1.7
2017-Apr-25 07:06N 53°32' W 005°52'1 1.8
2017-Apr-25 06:41N 53°31' W 005°52'1 2.1
2017-Apr-25 06:27N 53°31' W 005°52'3 3.0
2017-Apr-25 05:32N 53°28' W 005°51'1 3.7
2017-Apr-25 05:21N 53°27' W 005°50'2 3.9
2017-Apr-25 04:55N 53°26' W 005°49'65 3.2
2017-Apr-24 08:44N 52°21' W 005°54'54 7.0
2017-Apr-24 01:00N 51°27' W 006°04'3 5.8
2017-Apr-24 00:30N 51°24' W 006°04'103 4.9
2017-Apr-23 03:23N 50°00' W 004°29'2 5.5
2017-Apr-23 02:59N 50°01' W 004°26'5 5.5
2017-Apr-23 02:01N 50°02' W 004°18'0 5.9
2017-Apr-23 02:00N 50°02' W 004°18'24 6.9
2017-Apr-22 22:33N 50°06' W 003°42'1 7.8
2017-Apr-22 22:26N 50°06' W 003°40'3 7.8
2017-Apr-22 22:00N 50°07' W 003°35'4 7.4
2017-Apr-22 21:30N 50°08' W 003°29'3 7.0
2017-Apr-22 21:00N 50°09' W 003°24'3 6.6
2017-Apr-22 20:30N 50°09' W 003°19'3 6.3
2017-Apr-22 20:00N 50°10' W 003°15'3 5.9
2017-Apr-22 19:30N 50°11' W 003°10'3 5.6
2017-Apr-22 19:00N 50°11' W 003°06'3 5.4
2017-Apr-22 18:30N 50°12' W 003°02'3 5.2
2017-Apr-22 18:00N 50°13' W 002°58'3 5.0
2017-Apr-22 17:30N 50°13' W 002°54'3 5.1
2017-Apr-22 17:00N 50°14' W 002°50'3 5.0
2017-Apr-22 16:20N 50°15' W 002°45'2 5.0
2017-Apr-22 16:00N 50°15' W 002°42'94 6.4
2017-Apr-22 01:27N 50°32' W 000°18'3 6.7
2017-Apr-22 01:00N 50°32' W 000°13'3 6.8
2017-Apr-22 00:30N 50°32' W 000°08'3 7.0
2017-Apr-22 00:00N 50°33' W 000°02'4 7.2
2017-Apr-21 23:30N 50°33' E 000°03'4 7.1
2017-Apr-21 23:00N 50°34' E 000°09'4 7.1
2017-Apr-21 22:30N 50°35' E 000°14'4 7.0
2017-Apr-21 22:00N 50°36' E 000°19'3 6.8
2017-Apr-21 21:30N 50°37' E 000°25'3 6.4
2017-Apr-21 21:00N 50°38' E 000°29'3 6.1
2017-Apr-21 20:30N 50°39' E 000°34'3 5.9
2017-Apr-21 20:00N 50°40' E 000°38'3 5.7
2017-Apr-21 19:30N 50°42' E 000°42'3 5.6
2017-Apr-21 19:00N 50°43' E 000°45'3 5.5
2017-Apr-21 18:30N 50°45' E 000°49'3 5.4
2017-Apr-21 18:00N 50°47' E 000°52'3 5.3
2017-Apr-21 17:30N 50°48' E 000°56'3 5.5
2017-Apr-21 16:54N 50°50' E 001°00'19 6.5
2017-Apr-21 14:00N 51°02' E 001°23'5 7.4
2017-Apr-21 13:20N 51°05' E 001°29'2 7.6
2017-Apr-21 13:00N 51°07' E 001°32'4 7.4
2017-Apr-21 12:30N 51°09' E 001°37'3 6.9
2017-Apr-21 12:00N 51°11' E 001°41'3 6.6
2017-Apr-21 11:30N 51°13' E 001°45'3 6.2
2017-Apr-21 11:00N 51°16' E 001°48'3 5.8
2017-Apr-21 10:30N 51°18' E 001°51'3 5.5
2017-Apr-21 10:00N 51°20' E 001°54'3 5.2
2017-Apr-21 09:30N 51°22' E 001°56'3 5.2
2017-Apr-21 09:00N 51°24' E 001°59'2 4.7
2017-Apr-21 08:30N 51°24' E 002°03'3 5.3
2017-Apr-21 08:00N 51°23' E 002°07'3 5.5
2017-Apr-21 07:30N 51°22' E 002°11'3 5.6
2017-Apr-21 07:00N 51°21' E 002°15'3 5.2
2017-Apr-21 06:30N 51°21' E 002°19'3 5.3
2017-Apr-21 06:00N 51°22' E 002°23'3 5.6
2017-Apr-21 05:30N 51°23' E 002°28'3 5.6
2017-Apr-21 05:00N 51°23' E 002°32'3 5.7
2017-Apr-21 04:30N 51°22' E 002°37'3 5.8
2017-Apr-21 04:00N 51°22' E 002°41'3 5.2
2017-Apr-21 03:30N 51°22' E 002°45'3 5.5
2017-Apr-21 03:00N 51°22' E 002°50'3 5.3
2017-Apr-21 02:30N 51°23' E 002°54'3 5.8
2017-Apr-21 02:00N 51°23' E 002°59'3 5.9
2017-Apr-21 01:31N 51°25' E 003°03'3 5.8
2017-Apr-21 01:00N 51°24' E 003°07'3 6.3
2017-Apr-21 00:30N 51°24' E 003°12'3 6.8
2017-Apr-21 00:00N 51°25' E 003°18'3 6.8
2017-Apr-20 23:30N 51°25' E 003°23'4 7.1
2017-Apr-20 23:00N 51°25' E 003°29'4 7.3
2017-Apr-20 22:30N 51°26' E 003°35'3 6.8
2017-Apr-20 22:00N 51°27' E 003°40'1 1.9
2017-Apr-20 21:30N 51°28' E 003°41'0 0.3
2017-Apr-20 21:00N 51°28' E 003°40'0 0.0
2017-Apr-20 20:30N 51°28' E 003°40'0 0.1
2017-Apr-20 19:59N 51°28' E 003°40'0 0.0
2017-Apr-20 19:27N 51°28' E 003°40'0 0.1
2017-Apr-20 19:00N 51°28' E 003°40'0 0.0
2017-Apr-20 18:30N 51°28' E 003°40'0 0.1
2017-Apr-20 18:00N 51°28' E 003°40'2 0.3
2017-Apr-20 12:56N 51°27' E 003°43'0 0.0
2017-Apr-20 12:30N 51°27' E 003°43'0 0.5
2017-Apr-20 12:00N 51°27' E 003°43'0 0.0
2017-Apr-20 11:30N 51°27' E 003°43'0 0.0
2017-Apr-20 11:00N 51°27' E 003°43'0 0.0
2017-Apr-20 10:30N 51°27' E 003°43'1 1.3
2017-Apr-20 09:59N 51°27' E 003°42'0 0.2
2017-Apr-20 09:30N 51°27' E 003°42'1 1.2
2017-Apr-20 09:00N 51°27' E 003°42'1 2.3
2017-Apr-20 08:30N 51°27' E 003°40'2 4.1
2017-Apr-20 08:00N 51°26' E 003°37'2 4.5
2017-Apr-20 07:30N 51°27' E 003°40'0 0.1
2017-Apr-20 07:00N 51°27' E 003°40'0 0.0
2017-Apr-20 06:30N 51°27' E 003°40'0 0.0
2017-Apr-20 05:59N 51°27' E 003°40'0 0.0
2017-Apr-20 05:30N 51°27' E 003°40'0 0.0
2017-Apr-20 05:00N 51°27' E 003°40'0 0.0
2017-Apr-20 04:30N 51°27' E 003°40'0 0.0
2017-Apr-20 04:00N 51°27' E 003°40'0 0.0
2017-Apr-20 03:30N 51°27' E 003°40'0 0.0
2017-Apr-20 03:00N 51°27' E 003°40'0 0.0
2017-Apr-20 02:30N 51°27' E 003°40'0 0.0
2017-Apr-20 02:00N 51°27' E 003°40'0 0.0
2017-Apr-20 01:30N 51°27' E 003°40'0 0.0
2017-Apr-20 01:00N 51°27' E 003°40'0 0.0
2017-Apr-20 00:30N 51°27' E 003°40'0 0.0
2017-Apr-20 00:00N 51°27' E 003°40'0 0.0
2017-Apr-19 23:30N 51°27' E 003°40'0 0.0
2017-Apr-19 23:00N 51°27' E 003°40'0 0.0
2017-Apr-19 22:30N 51°27' E 003°40'0 0.0
2017-Apr-19 22:00N 51°27' E 003°40'0 0.0
2017-Apr-19 21:30N 51°27' E 003°40'0 0.0
2017-Apr-19 21:00N 51°27' E 003°40'0 0.0
2017-Apr-19 20:30N 51°27' E 003°40'611.5
2017-Apr-19 20:00N 51°22' E 003°44'2 4.1
2017-Apr-19 19:31N 51°20' E 003°46'1 2.6
2017-Apr-19 19:00N 51°22' E 003°45'1 1.2
2017-Apr-19 18:30N 51°21' E 003°46'2 4.0
2017-Apr-19 18:00N 51°20' E 003°49'0 0.0
2017-Apr-19 17:30N 51°20' E 003°49'0 0.0
2017-Apr-19 17:00N 51°20' E 003°49'1 0.6
2017-Apr-19 15:54N 51°20' E 003°49'0 0.1
2017-Apr-19 15:30N 51°20' E 003°49'1 1.1
2017-Apr-19 14:58N 51°19' E 003°50'0 0.1
2017-Apr-19 14:30N 51°19' E 003°50'3 3.0
2017-Apr-19 13:30N 51°16' E 003°50'3 6.4
2017-Apr-19 12:59N 51°13' E 003°48'3 5.7
2017-Apr-19 12:30N 51°10' E 003°48'0 0.3
2017-Apr-19 12:01N 51°10' E 003°48'0 0.2
2017-Apr-19 11:30N 51°10' E 003°48'1 2.7
2017-Apr-19 11:01N 51°09' E 003°47'0 0.0
2017-Apr-19 10:30N 51°09' E 003°47'0 0.0
2017-Apr-19 10:00N 51°09' E 003°47'0 0.0
2017-Apr-19 09:30N 51°09' E 003°47'0 0.0
2017-Apr-19 09:00N 51°09' E 003°47'0 0.0
2017-Apr-19 08:30N 51°09' E 003°47'0 0.0
2017-Apr-19 08:00N 51°09' E 003°47'0 0.0
2017-Apr-19 07:30N 51°09' E 003°47'0 0.0
2017-Apr-19 06:59N 51°09' E 003°47'0 0.0
2017-Apr-19 06:30N 51°09' E 003°47'0 0.0
2017-Apr-19 05:57N 51°09' E 003°47'0 0.0
2017-Apr-19 05:29N 51°09' E 003°47'0 0.0
2017-Apr-19 05:00N 51°09' E 003°47'0 0.0
2017-Apr-19 04:30N 51°09' E 003°47'0 0.2
2017-Apr-19 04:00N 51°09' E 003°47'4 7.4
2017-Apr-19 03:29N 51°05' E 003°45'1 1.5
2017-Apr-19 02:59N 51°06' E 003°45'3 5.6
2017-Apr-19 02:30N 51°09' E 003°47'4 7.7
2017-Apr-19 02:00N 51°12' E 003°48'5 7.0
2017-Apr-19 01:21N 51°17' E 003°50'3 7.1
2017-Apr-19 01:00N 51°19' E 003°50'7 0.4
2017-Apr-18 08:50N 51°24' E 003°42'3 8.1
2017-Apr-18 08:24N 51°27' E 003°40'0 0.4
2017-Apr-18 08:00N 51°27' E 003°40'0 0.0
2017-Apr-18 07:30N 51°27' E 003°40'0 0.0
2017-Apr-18 07:00N 51°27' E 003°40'0 0.0
2017-Apr-18 06:30N 51°27' E 003°40'0 0.0
2017-Apr-18 05:59N 51°27' E 003°40'0 0.0
2017-Apr-18 05:29N 51°27' E 003°40'0 0.0
2017-Apr-18 05:00N 51°27' E 003°40'0 0.0
2017-Apr-18 04:29N 51°27' E 003°40'0 0.0
2017-Apr-18 03:59N 51°27' E 003°40'0 0.0
2017-Apr-18 03:29N 51°27' E 003°40'0 0.0
2017-Apr-18 03:00N 51°27' E 003°40'0 0.0
2017-Apr-18 02:29N 51°27' E 003°40'0 0.0
2017-Apr-18 01:59N 51°27' E 003°40'0 0.0
2017-Apr-18 01:30N 51°27' E 003°40'0 0.0
2017-Apr-18 00:59N 51°27' E 003°40'0 0.0
2017-Apr-18 00:30N 51°27' E 003°40'0 0.0
2017-Apr-18 00:00N 51°27' E 003°40'0 0.0
2017-Apr-17 23:29N 51°27' E 003°40'0 0.0
2017-Apr-17 22:59N 51°27' E 003°40'0 0.0
2017-Apr-17 22:29N 51°27' E 003°40'0 0.0
2017-Apr-17 22:00N 51°27' E 003°40'0 0.0
2017-Apr-17 21:30N 51°27' E 003°40'0 0.0
2017-Apr-17 21:00N 51°27' E 003°40'0 0.0
2017-Apr-17 20:30N 51°27' E 003°40'0 0.0
2017-Apr-17 20:00N 51°27' E 003°40'0 0.0
2017-Apr-17 19:30N 51°27' E 003°40'0 0.0
2017-Apr-17 19:00N 51°27' E 003°40'0 0.0
2017-Apr-17 18:30N 51°27' E 003°40'0 0.0
2017-Apr-17 18:00N 51°27' E 003°40'0 0.0
2017-Apr-17 17:30N 51°27' E 003°40'0 0.0
2017-Apr-17 17:00N 51°27' E 003°40'0 0.0
2017-Apr-17 16:30N 51°27' E 003°40'0 0.0
2017-Apr-17 16:00N 51°27' E 003°40'0 0.0
2017-Apr-17 15:30N 51°27' E 003°40'0 0.0
2017-Apr-17 15:00N 51°27' E 003°40'0 0.0
2017-Apr-17 14:29N 51°27' E 003°40'0 0.0
2017-Apr-17 13:30N 51°27' E 003°40'0 0.0
2017-Apr-17 13:00N 51°27' E 003°40'0 0.0
2017-Apr-17 12:30N 51°27' E 003°40'0 0.0
2017-Apr-17 12:00N 51°27' E 003°40'0 0.0
2017-Apr-17 11:30N 51°27' E 003°40'0 0.0
2017-Apr-17 11:00N 51°27' E 003°40'0 0.0
2017-Apr-17 10:30N 51°27' E 003°40'0 0.0
2017-Apr-17 10:00N 51°27' E 003°40'0 0.0
2017-Apr-17 09:30N 51°27' E 003°40'0 0.0
2017-Apr-17 09:00N 51°27' E 003°40'0 0.0
2017-Apr-17 08:30N 51°27' E 003°40'0 0.0
2017-Apr-17 08:00N 51°27' E 003°40'0 0.0
2017-Apr-17 07:30N 51°27' E 003°40'0 0.0
2017-Apr-17 07:00N 51°27' E 003°40'0 0.0
2017-Apr-17 06:30N 51°27' E 003°40'0 0.0
2017-Apr-17 06:00N 51°27' E 003°40'0 0.0
2017-Apr-17 05:30N 51°27' E 003°40'0 0.0
2017-Apr-17 04:59N 51°27' E 003°40'0 0.0
2017-Apr-17 04:30N 51°27' E 003°40'0 0.0
2017-Apr-17 04:00N 51°27' E 003°40'0 0.0
2017-Apr-17 03:30N 51°27' E 003°40'0 0.0
2017-Apr-17 03:00N 51°27' E 003°40'0 0.0
2017-Apr-17 02:30N 51°27' E 003°40'0 0.0
2017-Apr-17 02:00N 51°27' E 003°40'0 0.0
2017-Apr-17 01:30N 51°27' E 003°40'0 0.0
2017-Apr-17 01:00N 51°27' E 003°40'0 0.0
2017-Apr-17 00:30N 51°27' E 003°40'0 0.0
2017-Apr-17 00:00N 51°27' E 003°40'0 0.0
2017-Apr-16 23:30N 51°27' E 003°40'0 0.0
2017-Apr-16 23:00N 51°27' E 003°40'0 0.1
2017-Apr-16 22:30N 51°27' E 003°40'2 3.6
2017-Apr-16 22:00N 51°28' E 003°43'2 3.6
2017-Apr-16 21:28N 51°27' E 003°40'0 0.3
2017-Apr-16 21:00N 51°27' E 003°40'0 0.0
2017-Apr-16 20:30N 51°27' E 003°40'0 0.0
2017-Apr-16 20:00N 51°27' E 003°40'0 0.0
2017-Apr-16 19:30N 51°27' E 003°40'0 0.0
2017-Apr-16 19:00N 51°27' E 003°40'  

Dump ship's entire track history